Terminal Aerodrome Forecast
Issued by NWS Cleveland, OH

Home | Current Version | Previous Version | Graphics & Text | Print | Product List | Glossary Off
Versions: 1 2 3 4 5 6 7 8 9 10 11 12 13 14 15 16 17 18 19

000
FTUS41 KCLE 021727
TAFERI
TAF
KERI 021727Z 0218/0318 24010G18KT P6SM SKC
     FM030300 20018G28KT P6SM BKN040 BKN150
     FM030700 20012G22KT P6SM VCTS BKN040CB OVC100
     FM031200 20012G22KT P6SM VCSH BKN040 OVC100
     FM031600 24010G20KT P6SM BKN040=

USA.gov is the U.S. government's official web portal to all federal, state and local government web resources and services.